createdAt,value
2022-08-16T00:01:28.974Z,20.95
2022-08-16T00:04:05.350Z,20.93
2022-08-16T00:06:34.116Z,20.91
2022-08-16T00:09:05.931Z,20.88
2022-08-16T00:11:34.932Z,20.85
2022-08-16T00:14:08.605Z,20.82
2022-08-16T00:17:01.303Z,20.80
2022-08-16T00:19:41.194Z,20.74
2022-08-16T00:22:13.348Z,20.70
2022-08-16T00:24:46.998Z,20.68
2022-08-16T00:27:20.010Z,20.67
2022-08-16T00:30:08.711Z,20.66
2022-08-16T00:32:41.057Z,20.64
2022-08-16T00:35:16.440Z,20.60
2022-08-16T00:37:56.806Z,20.53
2022-08-16T00:40:50.730Z,20.48
2022-08-16T00:43:40.885Z,20.41
2022-08-16T00:46:53.970Z,20.32
2022-08-16T00:49:30.543Z,20.22
2022-08-16T00:52:30.062Z,20.14
2022-08-16T00:54:57.416Z,20.08
2022-08-16T00:57:26.763Z,20.04
2022-08-16T00:59:58.878Z,20.01
2022-08-16T01:02:31.783Z,19.98
2022-08-16T01:05:09.654Z,19.94
2022-08-16T01:07:50.630Z,19.91
2022-08-16T01:10:32.201Z,19.88
2022-08-16T01:13:19.955Z,19.84
2022-08-16T01:15:59.304Z,19.81
2022-08-16T01:18:39.360Z,19.77
2022-08-16T01:21:47.939Z,19.73
2022-08-16T01:24:52.092Z,19.68
2022-08-16T01:27:24.439Z,19.61
2022-08-16T01:30:28.795Z,19.55
2022-08-16T01:33:15.114Z,19.49
2022-08-16T01:36:12.108Z,19.46
2022-08-16T01:38:54.190Z,19.42
2022-08-16T01:41:31.295Z,19.39
2022-08-16T01:44:00.771Z,19.35
2022-08-16T01:46:44.954Z,19.32
2022-08-16T01:49:22.497Z,19.29
2022-08-16T01:52:04.458Z,19.25
2022-08-16T01:54:33.305Z,19.21
2022-08-16T01:57:07.387Z,19.18
2022-08-16T01:59:41.302Z,19.16
2022-08-16T02:02:26.705Z,19.13
2022-08-16T02:05:00.380Z,19.09
2022-08-16T02:07:30.683Z,19.05
2022-08-16T02:10:02.194Z,19.01
2022-08-16T02:12:49.560Z,18.99
2022-08-16T02:15:26.150Z,18.95
2022-08-16T02:18:01.171Z,18.93
2022-08-16T02:20:32.214Z,18.90
2022-08-16T02:23:05.724Z,18.85
2022-08-16T02:25:52.923Z,18.81
2022-08-16T02:28:24.874Z,18.78
2022-08-16T02:30:57.423Z,18.74
2022-08-16T02:33:44.393Z,18.70
2022-08-16T02:36:48.181Z,18.67
2022-08-16T02:39:07.793Z,18.66
2022-08-16T02:41:40.426Z,18.64
2022-08-16T02:44:13.628Z,18.59
2022-08-16T02:46:50.388Z,18.55
2022-08-16T02:49:19.430Z,18.52
2022-08-16T02:51:50.242Z,18.49
2022-08-16T02:54:18.809Z,18.47
2022-08-16T02:56:52.453Z,18.46
2022-08-16T02:59:22.284Z,18.43
2022-08-16T03:01:51.066Z,18.41
2022-08-16T03:04:41.471Z,18.39
2022-08-16T03:07:11.664Z,18.35
2022-08-16T03:09:40.845Z,18.33
2022-08-16T03:12:16.646Z,18.32
2022-08-16T03:14:47.875Z,18.32
2022-08-16T03:17:17.888Z,18.31
2022-08-16T03:19:59.360Z,18.28
2022-08-16T03:22:29.679Z,18.24
2022-08-16T03:25:01.589Z,18.21
2022-08-16T03:27:33.078Z,18.18
2022-08-16T03:30:16.443Z,18.15
2022-08-16T03:32:51.783Z,18.11
2022-08-16T03:35:32.600Z,18.06
2022-08-16T03:38:32.440Z,18.03
2022-08-16T03:40:57.549Z,18.00
2022-08-16T03:43:51.747Z,17.98
2022-08-16T03:46:45.153Z,17.96
2022-08-16T03:49:12.471Z,17.94
2022-08-16T03:51:43.322Z,17.94
2022-08-16T03:54:12.902Z,17.94
2022-08-16T03:56:57.985Z,17.95
2022-08-16T03:59:29.667Z,17.94
2022-08-16T04:02:01.250Z,17.94
2022-08-16T04:04:32.773Z,17.93
2022-08-16T04:07:07.206Z,17.94
2022-08-16T04:09:38.219Z,17.95
2022-08-16T04:12:11.320Z,17.97
2022-08-16T04:14:58.245Z,17.99
2022-08-16T04:17:27.115Z,17.99
2022-08-16T04:19:58.475Z,18.00
2022-08-16T04:22:28.547Z,18.01
2022-08-16T04:24:59.112Z,18.03
2022-08-16T04:27:31.723Z,18.06
2022-08-16T04:30:03.939Z,18.11
2022-08-16T04:32:32.582Z,18.15
2022-08-16T04:35:06.347Z,18.18
2022-08-16T04:37:41.882Z,18.22
2022-08-16T04:40:20.493Z,18.26
2022-08-16T04:42:51.215Z,18.31
2022-08-16T04:45:35.907Z,18.35
2022-08-16T04:48:05.990Z,18.39
2022-08-16T04:50:34.810Z,18.43
2022-08-16T04:53:04.271Z,18.49
2022-08-16T04:55:38.171Z,18.55
2022-08-16T04:58:44.562Z,18.60
2022-08-16T05:00:57.356Z,18.67
2022-08-16T05:03:26.161Z,18.71
2022-08-16T05:06:04.783Z,18.75
2022-08-16T05:08:34.396Z,18.81
2022-08-16T05:11:08.529Z,18.87
2022-08-16T05:13:43.563Z,18.95
2022-08-16T05:16:21.562Z,19.01
2022-08-16T05:18:52.774Z,19.08
2022-08-16T05:21:22.321Z,19.15
2022-08-16T05:23:55.590Z,19.22
2022-08-16T05:26:31.438Z,19.31
2022-08-16T05:29:03.535Z,19.38
2022-08-16T05:31:35.091Z,19.46
2022-08-16T05:34:04.606Z,19.54
2022-08-16T05:36:36.990Z,19.62
2022-08-16T05:39:09.522Z,19.71
2022-08-16T05:41:45.569Z,19.80
2022-08-16T05:44:23.877Z,19.89
2022-08-16T05:46:56.291Z,19.98
2022-08-16T05:49:38.445Z,20.07
2022-08-16T05:52:13.735Z,20.16
2022-08-16T05:54:58.720Z,20.27
2022-08-16T05:57:34.457Z,20.37
2022-08-16T06:00:11.904Z,20.46
2022-08-16T06:02:44.193Z,20.56
2022-08-16T06:05:14.582Z,20.67
2022-08-16T06:07:44.896Z,20.77
2022-08-16T06:10:32.242Z,20.88
2022-08-16T06:13:02.238Z,20.98
2022-08-16T06:15:30.822Z,21.07
2022-08-16T06:17:59.512Z,21.16
2022-08-16T06:20:35.927Z,21.26
2022-08-16T06:23:16.784Z,21.35
2022-08-16T06:25:52.174Z,21.51
2022-08-16T06:28:36.612Z,21.74
2022-08-16T06:31:11.993Z,21.91
2022-08-16T06:33:44.710Z,22.07
2022-08-16T06:36:14.779Z,22.21
2022-08-16T06:38:55.388Z,22.31
2022-08-16T06:41:27.466Z,22.43
2022-08-16T06:43:56.690Z,22.53
2022-08-16T06:46:37.669Z,22.66
2022-08-16T06:49:11.168Z,22.77
2022-08-16T06:51:46.419Z,22.85
2022-08-16T06:54:17.417Z,22.96
2022-08-16T06:56:46.650Z,23.08
2022-08-16T06:59:15.165Z,23.19
2022-08-16T07:01:54.054Z,23.31
2022-08-16T07:04:32.736Z,23.45
2022-08-16T07:07:06.347Z,23.55
2022-08-16T07:09:38.669Z,23.61
2022-08-16T07:12:07.849Z,23.63
2022-08-16T07:14:37.358Z,23.65
2022-08-16T07:17:11.469Z,23.69
2022-08-16T07:20:03.813Z,23.71
2022-08-16T07:22:38.286Z,23.74
2022-08-16T07:25:12.238Z,23.78
2022-08-16T07:27:49.865Z,23.81
2022-08-16T07:30:38.350Z,23.87
2022-08-16T07:33:10.255Z,23.96
2022-08-16T07:35:49.491Z,24.03
2022-08-16T07:38:19.981Z,24.13
2022-08-16T07:40:59.349Z,24.19
2022-08-16T07:43:30.202Z,24.28
2022-08-16T07:46:01.319Z,24.36
2022-08-16T07:48:30.392Z,24.44
2022-08-16T07:51:00.310Z,24.52
2022-08-16T07:53:33.984Z,24.59
2022-08-16T07:56:12.018Z,24.72
2022-08-16T07:58:43.316Z,24.84
2022-08-16T08:01:15.126Z,24.96
2022-08-16T08:03:48.923Z,25.06
2022-08-16T08:06:20.710Z,25.16
2022-08-16T08:08:52.593Z,25.26
2022-08-16T08:11:28.117Z,25.31
2022-08-16T08:14:03.071Z,25.37
2022-08-16T08:16:35.710Z,25.48
2022-08-16T08:19:05.009Z,25.61
2022-08-16T08:22:00.926Z,25.70
2022-08-16T08:24:32.045Z,25.86
2022-08-16T08:27:03.869Z,25.96
2022-08-16T08:29:37.624Z,26.01
2022-08-16T08:32:58.178Z,26.06
2022-08-16T08:35:03.243Z,26.07
2022-08-16T08:37:54.776Z,26.08
2022-08-16T08:40:27.181Z,26.10
2022-08-16T08:43:00.919Z,26.12
2022-08-16T08:45:52.893Z,26.16
2022-08-16T08:48:34.455Z,26.24
2022-08-16T08:51:10.106Z,26.28
2022-08-16T08:53:39.905Z,26.32
2022-08-16T08:56:22.849Z,26.39
2022-08-16T08:58:59.976Z,26.46
2022-08-16T09:01:42.758Z,26.54
2022-08-16T09:04:26.522Z,26.67
2022-08-16T09:06:56.373Z,26.79
2022-08-16T09:09:33.533Z,26.88
2022-08-16T09:12:06.526Z,27.00
2022-08-16T09:14:38.851Z,27.13
2022-08-16T09:17:38.387Z,27.24
2022-08-16T09:20:08.163Z,27.32
2022-08-16T09:22:37.358Z,27.43
2022-08-16T09:25:10.128Z,27.60
2022-08-16T09:27:56.565Z,27.79
2022-08-16T09:30:33.552Z,27.93
2022-08-16T09:33:07.706Z,28.17
2022-08-16T09:35:39.078Z,28.38
2022-08-16T09:38:31.172Z,28.55
2022-08-16T09:41:14.559Z,28.77
2022-08-16T09:43:59.687Z,29.07
2022-08-16T09:46:48.622Z,29.37
2022-08-16T09:49:30.595Z,29.54
2022-08-16T09:52:06.112Z,29.59
2022-08-16T09:54:34.668Z,29.64
2022-08-16T09:57:04.826Z,29.75
2022-08-16T09:59:38.254Z,29.76
2022-08-16T10:02:26.276Z,29.76
2022-08-16T10:04:58.832Z,29.86
2022-08-16T10:07:38.233Z,29.90
2022-08-16T10:10:19.174Z,30.05
2022-08-16T10:13:12.256Z,30.22
2022-08-16T10:15:55.531Z,30.40
2022-08-16T10:19:00.509Z,30.69
2022-08-16T10:21:20.267Z,31.03
2022-08-16T10:23:54.884Z,31.22
2022-08-16T10:27:20.844Z,31.28
2022-08-16T10:29:19.951Z,31.29
2022-08-16T10:31:53.593Z,31.42
2022-08-16T10:34:31.517Z,31.56
2022-08-16T10:37:02.833Z,31.59
2022-08-16T10:39:40.423Z,31.71
2022-08-16T10:42:13.127Z,31.69
2022-08-16T10:44:42.642Z,31.83
2022-08-16T10:47:15.506Z,32.00
2022-08-16T10:49:45.722Z,32.14
2022-08-16T10:52:17.986Z,32.19
2022-08-16T10:57:36.321Z,32.55
2022-08-16T11:00:21.179Z,32.85
2022-08-16T11:03:00.659Z,33.17
2022-08-16T11:08:35.678Z,33.67
2022-08-16T11:11:09.907Z,34.11
2022-08-16T11:14:06.165Z,34.54
2022-08-16T11:19:22.676Z,35.23
2022-08-16T11:24:44.735Z,35.78
2022-08-16T11:27:22.911Z,36.12
2022-08-16T11:29:56.845Z,36.44
2022-08-16T11:32:32.169Z,36.16
2022-08-16T11:35:13.824Z,35.84
2022-08-16T11:38:47.897Z,35.41
2022-08-16T11:40:52.746Z,35.08
2022-08-16T11:43:29.422Z,34.95
2022-08-16T11:46:42.981Z,34.87
2022-08-16T11:48:56.467Z,34.81
2022-08-16T11:51:25.108Z,34.79
2022-08-16T11:53:54.589Z,35.06
2022-08-16T11:56:39.855Z,35.37
2022-08-16T11:59:13.705Z,35.61
2022-08-16T12:01:59.061Z,35.78
2022-08-16T12:04:29.346Z,36.07
2022-08-16T12:06:58.890Z,36.43
2022-08-16T12:09:30.376Z,36.57
2022-08-16T12:12:02.925Z,36.76
2022-08-16T12:14:35.278Z,37.12
2022-08-16T12:17:08.255Z,37.63
2022-08-16T12:19:38.036Z,38.18
2022-08-16T12:22:18.984Z,38.21
2022-08-16T12:24:51.933Z,37.77
2022-08-16T12:27:26.304Z,37.44
2022-08-16T12:29:58.504Z,37.17
2022-08-16T12:32:39.558Z,36.99
2022-08-16T12:35:16.271Z,36.79
2022-08-16T12:37:47.319Z,36.61
2022-08-16T12:40:25.372Z,36.47
2022-08-16T12:43:00.923Z,36.42
2022-08-16T12:45:36.883Z,36.48
2022-08-16T12:48:32.654Z,36.79
2022-08-16T12:51:19.430Z,37.57
2022-08-16T12:53:54.760Z,38.38
2022-08-16T12:56:29.115Z,39.23
2022-08-16T12:58:58.311Z,39.99
2022-08-16T13:01:33.526Z,40.58
2022-08-16T13:04:20.650Z,40.98
2022-08-16T13:06:52.245Z,41.55
2022-08-16T13:09:26.585Z,41.91
2022-08-16T13:12:07.293Z,42.19
2022-08-16T13:14:42.538Z,42.47
2022-08-16T13:17:26.395Z,42.06
2022-08-16T13:20:09.011Z,41.10
2022-08-16T13:22:46.974Z,40.32
2022-08-16T13:25:21.827Z,39.86
2022-08-16T13:28:02.822Z,39.56
2022-08-16T13:30:50.626Z,39.32
2022-08-16T13:33:30.028Z,39.22
2022-08-16T13:36:01.370Z,39.16
2022-08-16T13:38:36.752Z,39.10
2022-08-16T13:41:10.795Z,38.98
2022-08-16T13:43:40.518Z,39.33
2022-08-16T13:46:09.020Z,40.01
2022-08-16T13:48:44.366Z,40.77
2022-08-16T13:51:18.672Z,41.58
2022-08-16T13:53:59.125Z,42.25
2022-08-16T13:56:37.162Z,43.08
2022-08-16T13:59:19.972Z,43.55
2022-08-16T14:01:59.519Z,43.81
2022-08-16T14:04:32.797Z,44.31
2022-08-16T14:07:04.328Z,45.01
2022-08-16T14:09:36.575Z,45.38
2022-08-16T14:12:17.910Z,44.51
2022-08-16T14:14:48.613Z,43.57
2022-08-16T14:17:21.667Z,42.86
2022-08-16T14:19:52.013Z,42.40
2022-08-16T14:22:35.613Z,42.17
2022-08-16T14:25:16.257Z,41.76
2022-08-16T14:27:46.217Z,41.42
2022-08-16T14:30:19.201Z,41.21
2022-08-16T14:32:49.975Z,41.17
2022-08-16T14:35:36.399Z,41.22
2022-08-16T14:38:18.319Z,41.25
2022-08-16T14:40:54.876Z,41.82
2022-08-16T14:43:25.880Z,42.60
2022-08-16T14:45:58.616Z,43.34
2022-08-16T14:48:27.242Z,43.82
2022-08-16T14:50:56.115Z,44.23
2022-08-16T14:53:26.827Z,44.57
2022-08-16T14:55:55.770Z,44.93
2022-08-16T14:58:34.719Z,45.41
2022-08-16T15:01:10.157Z,45.99
2022-08-16T15:03:44.502Z,46.72
2022-08-16T15:06:14.457Z,47.51
2022-08-16T15:08:44.004Z,47.53
2022-08-16T15:11:14.761Z,46.37
2022-08-16T15:13:43.380Z,45.34
2022-08-16T15:16:12.265Z,44.51
2022-08-16T15:18:41.615Z,43.87
2022-08-16T15:21:15.642Z,43.40
2022-08-16T15:23:44.382Z,43.09
2022-08-16T15:26:22.261Z,42.93
2022-08-16T15:29:01.480Z,43.84
2022-08-16T15:31:30.643Z,44.79
2022-08-16T15:34:00.001Z,45.79
2022-08-16T15:36:29.462Z,46.68
2022-08-16T15:39:06.971Z,47.29
2022-08-16T15:41:47.912Z,47.65
2022-08-16T15:44:26.284Z,48.15
2022-08-16T15:46:59.970Z,48.72
2022-08-16T15:49:46.473Z,49.17
2022-08-16T15:52:29.725Z,49.49
2022-08-16T15:55:13.014Z,49.73
2022-08-16T15:57:54.734Z,50.03
2022-08-16T16:00:23.437Z,50.30
2022-08-16T16:03:17.328Z,50.66
2022-08-16T16:05:50.592Z,51.14
2022-08-16T16:08:25.272Z,51.54
2022-08-16T16:10:59.219Z,51.85
2022-08-16T16:13:28.571Z,52.09
2022-08-16T16:16:13.146Z,52.37
2022-08-16T16:18:49.061Z,52.45
2022-08-16T16:21:20.505Z,52.59
2022-08-16T16:23:53.075Z,52.73
2022-08-16T16:26:25.256Z,52.95
2022-08-16T16:29:07.586Z,53.06
2022-08-16T16:31:57.187Z,53.07
2022-08-16T16:37:39.817Z,53.01
2022-08-16T16:41:52.348Z,51.25
2022-08-16T16:45:19.045Z,50.35
2022-08-16T16:48:38.173Z,50.62
2022-08-16T16:51:50.711Z,50.59
2022-08-16T16:54:56.095Z,50.79
2022-08-16T16:58:05.209Z,50.06
2022-08-16T17:02:00.350Z,49.67
2022-08-16T17:05:43.413Z,49.47
2022-08-16T17:08:40.760Z,48.00
2022-08-16T17:11:55.004Z,45.75
2022-08-16T17:14:34.582Z,43.67
2022-08-16T17:17:20.186Z,42.33
2022-08-16T17:19:54.754Z,41.24
2022-08-16T17:22:23.639Z,40.80
2022-08-16T17:25:07.450Z,41.27
2022-08-16T17:27:37.635Z,41.67
2022-08-16T17:30:45.565Z,41.88
2022-08-16T17:33:26.607Z,41.43
2022-08-16T17:36:08.722Z,40.48
2022-08-16T17:38:44.025Z,39.60
2022-08-16T17:41:15.626Z,38.82
2022-08-16T17:43:45.277Z,38.14
2022-08-16T17:46:41.718Z,37.49
2022-08-16T17:49:05.693Z,36.81
2022-08-16T17:51:34.465Z,36.27
2022-08-16T17:54:03.734Z,35.74
2022-08-16T17:56:32.793Z,35.23
2022-08-16T17:59:02.008Z,34.76
2022-08-16T18:01:31.360Z,34.32
2022-08-16T18:04:07.861Z,33.88
2022-08-16T18:06:40.183Z,33.45
2022-08-16T18:09:10.462Z,33.10
2022-08-16T18:11:44.524Z,32.74
2022-08-16T18:14:15.133Z,32.41
2022-08-16T18:16:44.704Z,32.11
2022-08-16T18:19:13.409Z,31.82
2022-08-16T18:22:01.625Z,31.30
2022-08-16T18:24:30.226Z,30.49
2022-08-16T18:27:05.287Z,29.98
2022-08-16T18:29:52.132Z,29.53
2022-08-16T18:32:22.171Z,29.20
2022-08-16T18:34:54.842Z,28.92
2022-08-16T18:37:24.741Z,28.65
2022-08-16T18:39:53.395Z,28.37
2022-08-16T18:42:21.974Z,28.15
2022-08-16T18:44:51.365Z,28.05
2022-08-16T18:47:19.912Z,27.98
2022-08-16T18:49:48.371Z,27.92
2022-08-16T18:52:25.032Z,27.86
2022-08-16T18:55:02.316Z,27.79
2022-08-16T18:57:43.095Z,27.71
2022-08-16T19:00:14.585Z,27.62
2022-08-16T19:02:58.899Z,27.53
2022-08-16T19:05:31.292Z,27.40
2022-08-16T19:08:01.777Z,27.24
2022-08-16T19:10:33.249Z,27.04
2022-08-16T19:13:12.825Z,26.83
2022-08-16T19:15:44.679Z,26.66
2022-08-16T19:18:13.771Z,26.51
2022-08-16T19:20:44.601Z,26.37
2022-08-16T19:23:23.634Z,26.25
2022-08-16T19:25:56.906Z,26.15
2022-08-16T19:28:51.910Z,26.05
2022-08-16T19:31:27.983Z,25.93
2022-08-16T19:33:57.120Z,25.84
2022-08-16T19:36:36.553Z,25.75
2022-08-16T19:39:08.915Z,25.67
2022-08-16T19:41:42.470Z,25.58
2022-08-16T19:44:11.394Z,25.49
2022-08-16T19:46:45.740Z,25.40
2022-08-16T19:49:15.941Z,25.32
2022-08-16T19:51:48.788Z,25.23
2022-08-16T19:54:18.011Z,25.13
2022-08-16T19:56:46.596Z,25.01
2022-08-16T19:59:20.515Z,24.90
2022-08-16T20:01:52.640Z,24.79
2022-08-16T20:04:23.488Z,24.70
2022-08-16T20:06:54.120Z,24.62
2022-08-16T20:09:24.411Z,24.55
2022-08-16T20:11:53.916Z,24.48
2022-08-16T20:14:25.185Z,24.39
2022-08-16T20:16:58.600Z,24.35
2022-08-16T20:19:30.962Z,24.30
2022-08-16T20:22:49.806Z,24.24
2022-08-16T20:25:14.851Z,24.19
2022-08-16T20:27:43.885Z,24.09
2022-08-16T20:30:15.802Z,24.04
2022-08-16T20:32:46.584Z,24.03
2022-08-16T20:35:20.424Z,24.02
2022-08-16T20:37:49.066Z,24.01
2022-08-16T20:40:34.244Z,24.03
2022-08-16T20:43:10.697Z,24.19
2022-08-16T20:45:44.097Z,24.27
2022-08-16T20:48:13.668Z,24.15
2022-08-16T20:50:42.861Z,24.02
2022-08-16T20:53:11.652Z,23.93
2022-08-16T20:55:41.785Z,23.84
2022-08-16T20:58:10.984Z,23.75
2022-08-16T21:00:40.454Z,23.68
2022-08-16T21:03:12.418Z,23.61
2022-08-16T21:05:40.983Z,23.56
2022-08-16T21:08:50.347Z,23.52
2022-08-16T21:10:58.926Z,23.48
2022-08-16T21:13:30.920Z,23.43
2022-08-16T21:16:02.047Z,23.38
2022-08-16T21:18:30.574Z,23.30
2022-08-16T21:20:59.213Z,23.19
2022-08-16T21:23:27.770Z,23.07
2022-08-16T21:25:57.965Z,22.97
2022-08-16T21:28:39.457Z,22.88
2022-08-16T21:31:13.489Z,22.78
2022-08-16T21:33:43.378Z,22.69
2022-08-16T21:36:12.959Z,22.60
2022-08-16T21:38:41.489Z,22.51
2022-08-16T21:41:12.918Z,22.41
2022-08-16T21:43:41.584Z,22.32
2022-08-16T21:46:10.541Z,22.27
2022-08-16T21:48:40.573Z,22.24
2022-08-16T21:51:13.870Z,22.19
2022-08-16T21:53:44.022Z,22.12
2022-08-16T21:56:16.608Z,22.04
2022-08-16T21:58:52.450Z,21.97
2022-08-16T22:01:23.430Z,21.90
2022-08-16T22:04:36.174Z,21.83
2022-08-16T22:06:43.016Z,21.76
2022-08-16T22:09:15.468Z,21.70
2022-08-16T22:11:45.020Z,21.63
2022-08-16T22:14:13.685Z,21.56
2022-08-16T22:16:43.569Z,21.47
2022-08-16T22:19:13.407Z,21.37
2022-08-16T22:21:41.999Z,21.29
2022-08-16T22:24:10.640Z,21.23
2022-08-16T22:26:43.158Z,21.19
2022-08-16T22:29:15.145Z,21.16
2022-08-16T22:31:44.537Z,21.12
2022-08-16T22:34:13.654Z,21.08
2022-08-16T22:36:42.591Z,21.01
2022-08-16T22:39:14.114Z,20.95
2022-08-16T22:41:45.677Z,20.91
2022-08-16T22:44:14.599Z,20.90
2022-08-16T22:46:43.870Z,20.90
2022-08-16T22:49:13.112Z,20.91
2022-08-16T22:51:42.087Z,20.91
2022-08-16T22:54:34.127Z,20.88
2022-08-16T22:57:00.496Z,20.84
2022-08-16T22:59:30.495Z,20.80
2022-08-16T23:02:02.354Z,20.75
2022-08-16T23:04:31.405Z,20.69
2022-08-16T23:07:00.126Z,20.65
2022-08-16T23:09:28.673Z,20.64
2022-08-16T23:12:01.660Z,20.62
2022-08-16T23:14:30.473Z,20.60
2022-08-16T23:16:59.032Z,20.58
2022-08-16T23:19:27.599Z,20.58
2022-08-16T23:21:57.585Z,20.58
2022-08-16T23:24:26.114Z,20.57
2022-08-16T23:26:54.608Z,20.57
2022-08-16T23:29:26.308Z,20.53
2022-08-16T23:31:59.017Z,20.51
2022-08-16T23:34:28.957Z,20.49
2022-08-16T23:36:57.943Z,20.48
2022-08-16T23:39:27.103Z,20.48
2022-08-16T23:41:55.818Z,20.46
2022-08-16T23:44:56.818Z,20.44
2022-08-16T23:47:13.166Z,20.44
2022-08-16T23:49:58.779Z,20.41
2022-08-16T23:52:42.166Z,20.38
2022-08-16T23:55:19.692Z,20.33
2022-08-16T23:57:48.348Z,20.26
